sensor_id;sensor_type;location;lat;lon;timestamp;temperature;humidity
18101;DHT22;9177;49.156;8.142;2023-03-13T00:00:49;18.80;91.00
18101;DHT22;9177;49.156;8.142;2023-03-13T00:03:16;18.80;91.00
18101;DHT22;9177;49.156;8.142;2023-03-13T00:05:45;18.80;91.00
18101;DHT22;9177;49.156;8.142;2023-03-13T00:08:12;18.80;91.00
18101;DHT22;9177;49.156;8.142;2023-03-13T00:10:39;18.80;91.00
18101;DHT22;9177;49.156;8.142;2023-03-13T00:13:09;18.80;91.00
18101;DHT22;9177;49.156;8.142;2023-03-13T00:15:36;18.80;91.00
18101;DHT22;9177;49.156;8.142;2023-03-13T00:18:03;18.80;91.00
18101;DHT22;9177;49.156;8.142;2023-03-13T00:20:30;18.80;91.00
18101;DHT22;9177;49.156;8.142;2023-03-13T00:22:58;18.80;91.00
18101;DHT22;9177;49.156;8.142;2023-03-13T00:25:24;18.70;91.00
18101;DHT22;9177;49.156;8.142;2023-03-13T00:27:54;18.70;91.00
18101;DHT22;9177;49.156;8.142;2023-03-13T00:30:21;18.70;91.00
18101;DHT22;9177;49.156;8.142;2023-03-13T00:32:48;18.70;91.00
18101;DHT22;9177;49.156;8.142;2023-03-13T00:35:15;18.70;91.00
18101;DHT22;9177;49.156;8.142;2023-03-13T00:37:42;18.70;91.00
18101;DHT22;9177;49.156;8.142;2023-03-13T00:40:11;18.70;91.00
18101;DHT22;9177;49.156;8.142;2023-03-13T00:42:38;18.70;91.00
18101;DHT22;9177;49.156;8.142;2023-03-13T00:45:06;18.70;91.00
18101;DHT22;9177;49.156;8.142;2023-03-13T00:47:32;18.70;91.00
18101;DHT22;9177;49.156;8.142;2023-03-13T00:49:59;18.70;91.00
18101;DHT22;9177;49.156;8.142;2023-03-13T00:52:26;18.70;91.00
18101;DHT22;9177;49.156;8.142;2023-03-13T00:54:54;18.70;91.00
18101;DHT22;9177;49.156;8.142;2023-03-13T00:57:23;18.70;91.00
18101;DHT22;9177;49.156;8.142;2023-03-13T00:59:50;18.70;91.00
18101;DHT22;9177;49.156;8.142;2023-03-13T01:02:16;18.70;91.00
18101;DHT22;9177;49.156;8.142;2023-03-13T01:04:43;18.70;91.40
18101;DHT22;9177;49.156;8.142;2023-03-13T01:07:10;18.70;91.00
18101;DHT22;9177;49.156;8.142;2023-03-13T01:09:37;18.70;91.00
18101;DHT22;9177;49.156;8.142;2023-03-13T01:12:04;18.70;91.00
18101;DHT22;9177;49.156;8.142;2023-03-13T01:14:32;18.70;91.00
18101;DHT22;9177;49.156;8.142;2023-03-13T01:16:59;18.70;91.00
18101;DHT22;9177;49.156;8.142;2023-03-13T01:19:26;18.70;91.00
18101;DHT22;9177;49.156;8.142;2023-03-13T01:21:53;18.70;91.00
18101;DHT22;9177;49.156;8.142;2023-03-13T01:24:19;18.70;91.00
18101;DHT22;9177;49.156;8.142;2023-03-13T01:26:47;18.60;91.00
18101;DHT22;9177;49.156;8.142;2023-03-13T01:29:14;18.60;91.00
18101;DHT22;9177;49.156;8.142;2023-03-13T01:31:42;18.60;91.00
18101;DHT22;9177;49.156;8.142;2023-03-13T01:34:09;18.60;91.00
18101;DHT22;9177;49.156;8.142;2023-03-13T01:36:36;18.60;91.00
18101;DHT22;9177;49.156;8.142;2023-03-13T01:39:03;18.60;91.00
18101;DHT22;9177;49.156;8.142;2023-03-13T01:41:31;18.60;91.00
18101;DHT22;9177;49.156;8.142;2023-03-13T01:43:58;18.60;91.00
18101;DHT22;9177;49.156;8.142;2023-03-13T01:46:25;18.60;91.00
18101;DHT22;9177;49.156;8.142;2023-03-13T01:48:57;18.60;91.10
18101;DHT22;9177;49.156;8.142;2023-03-13T01:51:28;18.60;91.10
18101;DHT22;9177;49.156;8.142;2023-03-13T01:54:00;18.60;91.10
18101;DHT22;9177;49.156;8.142;2023-03-13T01:56:33;18.60;91.10
18101;DHT22;9177;49.156;8.142;2023-03-13T01:59:02;18.50;91.10
18101;DHT22;9177;49.156;8.142;2023-03-13T02:01:30;18.50;91.10
18101;DHT22;9177;49.156;8.142;2023-03-13T02:03:58;18.50;91.10
18101;DHT22;9177;49.156;8.142;2023-03-13T02:06:27;18.50;91.50
18101;DHT22;9177;49.156;8.142;2023-03-13T02:08:57;18.50;91.10
18101;DHT22;9177;49.156;8.142;2023-03-13T02:11:30;18.50;91.10
18101;DHT22;9177;49.156;8.142;2023-03-13T02:14:01;18.50;91.20
18101;DHT22;9177;49.156;8.142;2023-03-13T02:16:29;18.50;91.20
18101;DHT22;9177;49.156;8.142;2023-03-13T02:19:00;18.50;91.20
18101;DHT22;9177;49.156;8.142;2023-03-13T02:21:35;18.50;91.20
18101;DHT22;9177;49.156;8.142;2023-03-13T02:24:12;18.50;91.20
18101;DHT22;9177;49.156;8.142;2023-03-13T02:26:40;18.60;91.20
18101;DHT22;9177;49.156;8.142;2023-03-13T02:29:08;18.50;91.20
18101;DHT22;9177;49.156;8.142;2023-03-13T02:31:43;18.50;91.20
18101;DHT22;9177;49.156;8.142;2023-03-13T02:34:12;18.50;91.20
18101;DHT22;9177;49.156;8.142;2023-03-13T02:36:40;18.50;91.30
18101;DHT22;9177;49.156;8.142;2023-03-13T02:39:08;18.50;91.30
18101;DHT22;9177;49.156;8.142;2023-03-13T02:41:39;18.50;91.30
18101;DHT22;9177;49.156;8.142;2023-03-13T02:44:07;18.50;91.30
18101;DHT22;9177;49.156;8.142;2023-03-13T02:46:43;18.50;91.30
18101;DHT22;9177;49.156;8.142;2023-03-13T02:49:22;18.50;91.40
18101;DHT22;9177;49.156;8.142;2023-03-13T02:51:50;18.50;91.40
18101;DHT22;9177;49.156;8.142;2023-03-13T02:54:21;18.50;91.40
18101;DHT22;9177;49.156;8.142;2023-03-13T02:56:55;18.50;91.40
18101;DHT22;9177;49.156;8.142;2023-03-13T02:59:23;18.50;91.40
18101;DHT22;9177;49.156;8.142;2023-03-13T03:01:50;18.50;91.40
18101;DHT22;9177;49.156;8.142;2023-03-13T03:04:18;18.50;91.50
18101;DHT22;9177;49.156;8.142;2023-03-13T03:06:46;18.50;91.50
18101;DHT22;9177;49.156;8.142;2023-03-13T03:09:13;18.50;91.50
18101;DHT22;9177;49.156;8.142;2023-03-13T03:11:40;18.50;91.50
18101;DHT22;9177;49.156;8.142;2023-03-13T03:14:08;18.50;91.50
18101;DHT22;9177;49.156;8.142;2023-03-13T03:16:35;18.50;91.60
18101;DHT22;9177;49.156;8.142;2023-03-13T03:19:02;18.50;91.50
18101;DHT22;9177;49.156;8.142;2023-03-13T03:21:33;18.50;91.60
18101;DHT22;9177;49.156;8.142;2023-03-13T03:24:00;18.50;91.60
18101;DHT22;9177;49.156;8.142;2023-03-13T03:26:27;18.50;91.60
18101;DHT22;9177;49.156;8.142;2023-03-13T03:28:54;18.50;91.60
18101;DHT22;9177;49.156;8.142;2023-03-13T03:31:22;18.50;91.70
18101;DHT22;9177;49.156;8.142;2023-03-13T03:33:50;18.50;91.70
18101;DHT22;9177;49.156;8.142;2023-03-13T03:36:19;18.50;91.70
18101;DHT22;9177;49.156;8.142;2023-03-13T03:38:46;18.50;91.70
18101;DHT22;9177;49.156;8.142;2023-03-13T03:41:14;18.50;91.80
18101;DHT22;9177;49.156;8.142;2023-03-13T03:43:41;18.50;91.80
18101;DHT22;9177;49.156;8.142;2023-03-13T03:46:09;18.40;91.90
18101;DHT22;9177;49.156;8.142;2023-03-13T03:48:37;18.40;91.90
18101;DHT22;9177;49.156;8.142;2023-03-13T03:51:05;18.40;91.90
18101;DHT22;9177;49.156;8.142;2023-03-13T03:53:32;18.50;91.90
18101;DHT22;9177;49.156;8.142;2023-03-13T03:56:00;18.60;91.90
18101;DHT22;9177;49.156;8.142;2023-03-13T03:58:26;18.80;91.80
18101;DHT22;9177;49.156;8.142;2023-03-13T04:00:55;19.00;91.70
18101;DHT22;9177;49.156;8.142;2023-03-13T04:03:23;19.30;91.50
18101;DHT22;9177;49.156;8.142;2023-03-13T04:05:51;19.60;91.10
18101;DHT22;9177;49.156;8.142;2023-03-13T04:08:18;19.90;90.80
18101;DHT22;9177;49.156;8.142;2023-03-13T04:10:45;20.20;90.60
18101;DHT22;9177;49.156;8.142;2023-03-13T04:13:12;20.50;90.40
18101;DHT22;9177;49.156;8.142;2023-03-13T04:15:39;20.70;90.20
18101;DHT22;9177;49.156;8.142;2023-03-13T04:18:06;20.90;90.00
18101;DHT22;9177;49.156;8.142;2023-03-13T04:20:34;21.10;89.70
18101;DHT22;9177;49.156;8.142;2023-03-13T04:23:03;21.30;89.40
18101;DHT22;9177;49.156;8.142;2023-03-13T04:25:29;21.40;89.10
18101;DHT22;9177;49.156;8.142;2023-03-13T04:27:57;21.50;89.00
18101;DHT22;9177;49.156;8.142;2023-03-13T04:30:23;21.60;88.80
18101;DHT22;9177;49.156;8.142;2023-03-13T04:32:50;21.60;88.50
18101;DHT22;9177;49.156;8.142;2023-03-13T04:35:17;21.80;88.20
18101;DHT22;9177;49.156;8.142;2023-03-13T04:37:44;21.90;88.20
18101;DHT22;9177;49.156;8.142;2023-03-13T04:40:12;21.90;88.00
18101;DHT22;9177;49.156;8.142;2023-03-13T04:42:39;21.90;88.00
18101;DHT22;9177;49.156;8.142;2023-03-13T04:45:09;21.90;88.00
18101;DHT22;9177;49.156;8.142;2023-03-13T04:47:36;21.90;88.20
18101;DHT22;9177;49.156;8.142;2023-03-13T04:50:03;21.80;88.40
18101;DHT22;9177;49.156;8.142;2023-03-13T04:52:30;21.80;88.50
18101;DHT22;9177;49.156;8.142;2023-03-13T04:54:57;21.80;88.50
18101;DHT22;9177;49.156;8.142;2023-03-13T04:57:26;21.80;88.70
18101;DHT22;9177;49.156;8.142;2023-03-13T04:59:52;21.80;89.40
18101;DHT22;9177;49.156;8.142;2023-03-13T05:02:19;21.90;88.60
18101;DHT22;9177;49.156;8.142;2023-03-13T05:04:46;22.00;88.50
18101;DHT22;9177;49.156;8.142;2023-03-13T05:07:13;22.00;88.30
18101;DHT22;9177;49.156;8.142;2023-03-13T05:09:40;22.10;88.30
18101;DHT22;9177;49.156;8.142;2023-03-13T05:12:07;22.20;88.20
18101;DHT22;9177;49.156;8.142;2023-03-13T05:14:35;22.20;88.30
18101;DHT22;9177;49.156;8.142;2023-03-13T05:17:02;22.10;88.30
18101;DHT22;9177;49.156;8.142;2023-03-13T05:19:29;22.10;88.50
18101;DHT22;9177;49.156;8.142;2023-03-13T05:21:56;22.00;89.20
18101;DHT22;9177;49.156;8.142;2023-03-13T05:24:22;21.50;90.20
18101;DHT22;9177;49.156;8.142;2023-03-13T05:26:49;20.90;91.60
18101;DHT22;9177;49.156;8.142;2023-03-13T05:29:16;20.80;92.20
18101;DHT22;9177;49.156;8.142;2023-03-13T05:31:44;20.80;92.40
18101;DHT22;9177;49.156;8.142;2023-03-13T05:34:11;20.70;93.20
18101;DHT22;9177;49.156;8.142;2023-03-13T05:36:38;20.80;93.10
18101;DHT22;9177;49.156;8.142;2023-03-13T05:39:05;20.90;93.20
18101;DHT22;9177;49.156;8.142;2023-03-13T05:41:32;21.10;93.10
18101;DHT22;9177;49.156;8.142;2023-03-13T05:43:59;21.10;93.10
18101;DHT22;9177;49.156;8.142;2023-03-13T05:46:25;21.00;93.40
18101;DHT22;9177;49.156;8.142;2023-03-13T05:48:54;20.90;93.70
18101;DHT22;9177;49.156;8.142;2023-03-13T05:51:21;20.80;93.70
18101;DHT22;9177;49.156;8.142;2023-03-13T05:53:47;20.70;94.10
18101;DHT22;9177;49.156;8.142;2023-03-13T05:56:14;20.60;94.30
18101;DHT22;9177;49.156;8.142;2023-03-13T05:58:41;20.50;94.50
18101;DHT22;9177;49.156;8.142;2023-03-13T06:01:09;20.70;94.50
18101;DHT22;9177;49.156;8.142;2023-03-13T06:03:36;20.80;94.30
18101;DHT22;9177;49.156;8.142;2023-03-13T06:06:05;20.90;94.30
18101;DHT22;9177;49.156;8.142;2023-03-13T06:08:32;21.00;94.40
18101;DHT22;9177;49.156;8.142;2023-03-13T06:10:59;21.00;94.50
18101;DHT22;9177;49.156;8.142;2023-03-13T06:13:26;21.00;94.50
18101;DHT22;9177;49.156;8.142;2023-03-13T06:15:55;20.60;94.90
18101;DHT22;9177;49.156;8.142;2023-03-13T06:18:24;20.50;95.30
18101;DHT22;9177;49.156;8.142;2023-03-13T06:20:55;20.70;95.10
18101;DHT22;9177;49.156;8.142;2023-03-13T06:23:24;20.50;95.40
18101;DHT22;9177;49.156;8.142;2023-03-13T06:25:51;20.60;95.30
18101;DHT22;9177;49.156;8.142;2023-03-13T06:28:18;20.70;95.20
18101;DHT22;9177;49.156;8.142;2023-03-13T06:30:45;20.70;95.30
18101;DHT22;9177;49.156;8.142;2023-03-13T06:33:12;20.70;95.30
18101;DHT22;9177;49.156;8.142;2023-03-13T06:35:40;20.90;95.20
18101;DHT22;9177;49.156;8.142;2023-03-13T06:38:07;21.00;95.10
18101;DHT22;9177;49.156;8.142;2023-03-13T06:40:36;20.80;95.20
18101;DHT22;9177;49.156;8.142;2023-03-13T06:43:03;20.60;95.60
18101;DHT22;9177;49.156;8.142;2023-03-13T06:45:30;20.80;95.50
18101;DHT22;9177;49.156;8.142;2023-03-13T06:47:57;20.70;95.60
18101;DHT22;9177;49.156;8.142;2023-03-13T06:50:24;20.80;95.60
18101;DHT22;9177;49.156;8.142;2023-03-13T06:52:50;20.80;95.50
18101;DHT22;9177;49.156;8.142;2023-03-13T06:55:17;20.80;95.70
18101;DHT22;9177;49.156;8.142;2023-03-13T06:57:50;20.80;95.60
18101;DHT22;9177;49.156;8.142;2023-03-13T07:00:17;20.90;95.50
18101;DHT22;9177;49.156;8.142;2023-03-13T07:02:45;20.60;95.90
18101;DHT22;9177;49.156;8.142;2023-03-13T07:05:11;20.00;96.60
18101;DHT22;9177;49.156;8.142;2023-03-13T07:07:39;19.90;97.00
18101;DHT22;9177;49.156;8.142;2023-03-13T07:10:07;20.10;96.60
18101;DHT22;9177;49.156;8.142;2023-03-13T07:12:35;20.20;96.80
18101;DHT22;9177;49.156;8.142;2023-03-13T07:15:04;20.40;96.40
18101;DHT22;9177;49.156;8.142;2023-03-13T07:17:32;20.10;96.80
18101;DHT22;9177;49.156;8.142;2023-03-13T07:19:58;20.30;96.70
18101;DHT22;9177;49.156;8.142;2023-03-13T07:22:25;20.50;96.40
18101;DHT22;9177;49.156;8.142;2023-03-13T07:24:52;20.10;96.70
18101;DHT22;9177;49.156;8.142;2023-03-13T07:27:19;19.90;97.20
18101;DHT22;9177;49.156;8.142;2023-03-13T07:29:47;20.20;97.00
18101;DHT22;9177;49.156;8.142;2023-03-13T07:32:15;20.50;96.50
18101;DHT22;9177;49.156;8.142;2023-03-13T07:34:42;20.60;96.40
18101;DHT22;9177;49.156;8.142;2023-03-13T07:37:09;20.70;96.20
18101;DHT22;9177;49.156;8.142;2023-03-13T07:39:38;20.60;96.30
18101;DHT22;9177;49.156;8.142;2023-03-13T07:42:05;20.70;96.10
18101;DHT22;9177;49.156;8.142;2023-03-13T07:44:32;20.80;96.10
18101;DHT22;9177;49.156;8.142;2023-03-13T07:46:59;21.00;95.90
18101;DHT22;9177;49.156;8.142;2023-03-13T07:49:27;20.90;95.90
18101;DHT22;9177;49.156;8.142;2023-03-13T07:51:54;20.90;95.90
18101;DHT22;9177;49.156;8.142;2023-03-13T07:54:22;20.80;96.00
18101;DHT22;9177;49.156;8.142;2023-03-13T07:56:51;21.00;95.90
18101;DHT22;9177;49.156;8.142;2023-03-13T07:59:23;20.90;95.80
18101;DHT22;9177;49.156;8.142;2023-03-13T08:01:50;20.60;96.10
18101;DHT22;9177;49.156;8.142;2023-03-13T08:04:17;20.60;96.40
18101;DHT22;9177;49.156;8.142;2023-03-13T08:06:45;20.50;96.40
18101;DHT22;9177;49.156;8.142;2023-03-13T08:09:15;20.70;96.20
18101;DHT22;9177;49.156;8.142;2023-03-13T08:11:42;20.80;96.20
18101;DHT22;9177;49.156;8.142;2023-03-13T08:14:09;20.80;96.10
18101;DHT22;9177;49.156;8.142;2023-03-13T08:16:36;20.90;95.90
18101;DHT22;9177;49.156;8.142;2023-03-13T08:19:03;21.10;95.80
18101;DHT22;9177;49.156;8.142;2023-03-13T08:21:31;21.10;95.70
18101;DHT22;9177;49.156;8.142;2023-03-13T08:24:02;21.20;95.60
18101;DHT22;9177;49.156;8.142;2023-03-13T08:26:32;21.30;95.50
18101;DHT22;9177;49.156;8.142;2023-03-13T08:29:03;21.40;95.40
18101;DHT22;9177;49.156;8.142;2023-03-13T08:31:32;21.40;95.40
18101;DHT22;9177;49.156;8.142;2023-03-13T08:33:59;21.30;95.50
18101;DHT22;9177;49.156;8.142;2023-03-13T08:36:27;21.20;95.70
18101;DHT22;9177;49.156;8.142;2023-03-13T08:38:57;21.10;95.80
18101;DHT22;9177;49.156;8.142;2023-03-13T08:41:27;21.10;95.80
18101;DHT22;9177;49.156;8.142;2023-03-13T08:43:55;21.10;95.80
18101;DHT22;9177;49.156;8.142;2023-03-13T08:46:22;21.10;95.80
18101;DHT22;9177;49.156;8.142;2023-03-13T08:48:49;21.30;95.60
18101;DHT22;9177;49.156;8.142;2023-03-13T08:51:18;21.40;95.40
18101;DHT22;9177;49.156;8.142;2023-03-13T08:53:46;21.40;95.50
18101;DHT22;9177;49.156;8.142;2023-03-13T08:56:16;21.60;95.40
18101;DHT22;9177;49.156;8.142;2023-03-13T08:58:48;21.70;95.30
18101;DHT22;9177;49.156;8.142;2023-03-13T09:01:15;21.70;95.30
18101;DHT22;9177;49.156;8.142;2023-03-13T09:03:42;21.80;95.20
18101;DHT22;9177;49.156;8.142;2023-03-13T09:06:10;21.70;95.20
18101;DHT22;9177;49.156;8.142;2023-03-13T09:08:39;21.60;95.40
18101;DHT22;9177;49.156;8.142;2023-03-13T09:11:07;21.50;95.50
18101;DHT22;9177;49.156;8.142;2023-03-13T09:13:36;21.50;95.50
18101;DHT22;9177;49.156;8.142;2023-03-13T09:16:06;21.50;95.80
18101;DHT22;9177;49.156;8.142;2023-03-13T09:18:34;21.50;95.70
18101;DHT22;9177;49.156;8.142;2023-03-13T09:21:04;21.60;95.60
18101;DHT22;9177;49.156;8.142;2023-03-13T09:23:31;21.70;95.50
18101;DHT22;9177;49.156;8.142;2023-03-13T09:25:58;21.80;95.40
18101;DHT22;9177;49.156;8.142;2023-03-13T09:28:25;21.90;95.30
18101;DHT22;9177;49.156;8.142;2023-03-13T09:30:52;21.80;95.30
18101;DHT22;9177;49.156;8.142;2023-03-13T09:33:21;21.70;95.40
18101;DHT22;9177;49.156;8.142;2023-03-13T09:35:48;21.60;95.60
18101;DHT22;9177;49.156;8.142;2023-03-13T09:38:15;21.50;95.70
18101;DHT22;9177;49.156;8.142;2023-03-13T09:40:44;21.50;95.70
18101;DHT22;9177;49.156;8.142;2023-03-13T09:43:20;21.50;95.80
18101;DHT22;9177;49.156;8.142;2023-03-13T09:45:48;21.60;95.70
18101;DHT22;9177;49.156;8.142;2023-03-13T09:48:27;21.60;95.60
18101;DHT22;9177;49.156;8.142;2023-03-13T09:51:00;21.70;95.90
18101;DHT22;9177;49.156;8.142;2023-03-13T09:53:35;21.80;95.30
18101;DHT22;9177;49.156;8.142;2023-03-13T09:56:04;21.90;95.30
18101;DHT22;9177;49.156;8.142;2023-03-13T09:58:36;22.00;95.10
18101;DHT22;9177;49.156;8.142;2023-03-13T10:01:08;22.10;95.00
18101;DHT22;9177;49.156;8.142;2023-03-13T10:03:42;22.10;94.90
18101;DHT22;9177;49.156;8.142;2023-03-13T10:06:17;22.10;95.00
18101;DHT22;9177;49.156;8.142;2023-03-13T10:08:44;21.90;95.10
18101;DHT22;9177;49.156;8.142;2023-03-13T10:11:21;21.90;95.20
18101;DHT22;9177;49.156;8.142;2023-03-13T10:13:52;21.80;95.40
18101;DHT22;9177;49.156;8.142;2023-03-13T10:16:25;21.70;95.50
18101;DHT22;9177;49.156;8.142;2023-03-13T10:18:55;21.80;95.40
18101;DHT22;9177;49.156;8.142;2023-03-13T10:21:25;21.90;95.30
18101;DHT22;9177;49.156;8.142;2023-03-13T10:23:59;22.10;95.10
18101;DHT22;9177;49.156;8.142;2023-03-13T10:26:31;22.20;95.00
18101;DHT22;9177;49.156;8.142;2023-03-13T10:29:20;22.20;95.00
18101;DHT22;9177;49.156;8.142;2023-03-13T10:31:54;22.20;94.90
18101;DHT22;9177;49.156;8.142;2023-03-13T10:34:24;22.20;94.90
18101;DHT22;9177;49.156;8.142;2023-03-13T10:36:56;22.10;95.10
18101;DHT22;9177;49.156;8.142;2023-03-13T10:39:24;22.20;95.50
18101;DHT22;9177;49.156;8.142;2023-03-13T10:41:56;22.10;95.10
18101;DHT22;9177;49.156;8.142;2023-03-13T10:44:30;22.10;95.20
18101;DHT22;9177;49.156;8.142;2023-03-13T10:46:59;22.10;95.20
18101;DHT22;9177;49.156;8.142;2023-03-13T10:49:29;22.30;95.00
18101;DHT22;9177;49.156;8.142;2023-03-13T10:51:58;22.40;94.90
18101;DHT22;9177;49.156;8.142;2023-03-13T10:54:26;22.50;94.80
18101;DHT22;9177;49.156;8.142;2023-03-13T10:57:08;22.50;94.70
18101;DHT22;9177;49.156;8.142;2023-03-13T10:59:40;22.60;94.70
18101;DHT22;9177;49.156;8.142;2023-03-13T11:02:20;22.70;94.50
18101;DHT22;9177;49.156;8.142;2023-03-13T11:04:49;22.90;94.30
18101;DHT22;9177;49.156;8.142;2023-03-13T11:07:21;22.90;94.30
18101;DHT22;9177;49.156;8.142;2023-03-13T11:09:58;22.80;94.50
18101;DHT22;9177;49.156;8.142;2023-03-13T11:12:25;22.80;94.50
18101;DHT22;9177;49.156;8.142;2023-03-13T11:14:56;22.70;94.60
18101;DHT22;9177;49.156;8.142;2023-03-13T11:17:29;22.70;94.80
18101;DHT22;9177;49.156;8.142;2023-03-13T11:20:08;22.80;94.70
18101;DHT22;9177;49.156;8.142;2023-03-13T11:22:50;22.80;94.70
18101;DHT22;9177;49.156;8.142;2023-03-13T11:25:27;22.70;94.80
18101;DHT22;9177;49.156;8.142;2023-03-13T11:28:15;22.80;94.70
18101;DHT22;9177;49.156;8.142;2023-03-13T11:31:02;22.90;94.60
18101;DHT22;9177;49.156;8.142;2023-03-13T11:33:37;22.70;94.40
18101;DHT22;9177;49.156;8.142;2023-03-13T11:36:14;22.90;94.40
18101;DHT22;9177;49.156;8.142;2023-03-13T11:38:47;22.90;94.30
18101;DHT22;9177;49.156;8.142;2023-03-13T11:41:27;22.70;94.40
18101;DHT22;9177;49.156;8.142;2023-03-13T11:44:11;22.80;93.90
18101;DHT22;9177;49.156;8.142;2023-03-13T11:46:46;22.60;94.50
18101;DHT22;9177;49.156;8.142;2023-03-13T11:49:28;22.70;94.10
18101;DHT22;9177;49.156;8.142;2023-03-13T11:52:08;22.70;94.30
18101;DHT22;9177;49.156;8.142;2023-03-13T11:57:42;23.20;93.60
18101;DHT22;9177;49.156;8.142;2023-03-13T12:00:21;23.30;93.60
18101;DHT22;9177;49.156;8.142;2023-03-13T12:02:53;22.90;93.80
18101;DHT22;9177;49.156;8.142;2023-03-13T12:05:22;23.10;93.70
18101;DHT22;9177;49.156;8.142;2023-03-13T12:07:58;23.00;93.40
18101;DHT22;9177;49.156;8.142;2023-03-13T12:10:31;22.80;93.90
18101;DHT22;9177;49.156;8.142;2023-03-13T12:13:04;23.00;93.70
18101;DHT22;9177;49.156;8.142;2023-03-13T12:15:37;22.40;94.30
18101;DHT22;9177;49.156;8.142;2023-03-13T12:18:11;22.90;93.90
18101;DHT22;9177;49.156;8.142;2023-03-13T12:20:43;23.10;93.60
18101;DHT22;9177;49.156;8.142;2023-03-13T12:23:17;22.60;94.10
18101;DHT22;9177;49.156;8.142;2023-03-13T12:25:48;22.80;93.90
18101;DHT22;9177;49.156;8.142;2023-03-13T12:28:23;22.70;94.00
18101;DHT22;9177;49.156;8.142;2023-03-13T12:30:58;22.90;93.70
18101;DHT22;9177;49.156;8.142;2023-03-13T12:33:30;22.90;93.60
18101;DHT22;9177;49.156;8.142;2023-03-13T12:36:04;22.90;93.70
18101;DHT22;9177;49.156;8.142;2023-03-13T12:38:38;22.90;93.80
18101;DHT22;9177;49.156;8.142;2023-03-13T12:41:17;23.00;93.60
18101;DHT22;9177;49.156;8.142;2023-03-13T12:43:47;23.00;93.60
18101;DHT22;9177;49.156;8.142;2023-03-13T12:46:36;22.80;93.90
18101;DHT22;9177;49.156;8.142;2023-03-13T12:55:27;23.00;93.60
18101;DHT22;9177;49.156;8.142;2023-03-13T12:58:37;23.10;93.70
18101;DHT22;9177;49.156;8.142;2023-03-13T13:01:06;23.20;93.50
18101;DHT22;9177;49.156;8.142;2023-03-13T13:03:35;23.00;93.70
18101;DHT22;9177;49.156;8.142;2023-03-13T13:06:08;22.80;94.00
18101;DHT22;9177;49.156;8.142;2023-03-13T13:08:38;23.00;93.70
18101;DHT22;9177;49.156;8.142;2023-03-13T13:11:43;23.20;93.50
18101;DHT22;9177;49.156;8.142;2023-03-13T13:20:31;23.00;93.80
18101;DHT22;9177;49.156;8.142;2023-03-13T13:23:29;23.40;93.60
18101;DHT22;9177;49.156;8.142;2023-03-13T13:32:38;23.20;93.50
18101;DHT22;9177;49.156;8.142;2023-03-13T13:38:30;23.60;93.10
18101;DHT22;9177;49.156;8.142;2023-03-13T13:43:45;22.80;93.90
18101;DHT22;9177;49.156;8.142;2023-03-13T13:46:22;23.10;93.60
18101;DHT22;9177;49.156;8.142;2023-03-13T13:49:13;23.40;93.30
18101;DHT22;9177;49.156;8.142;2023-03-13T13:52:19;23.80;92.90
18101;DHT22;9177;49.156;8.142;2023-03-13T13:54:56;23.80;92.60
18101;DHT22;9177;49.156;8.142;2023-03-13T13:57:25;23.30;93.30
18101;DHT22;9177;49.156;8.142;2023-03-13T13:59:58;23.40;93.40
18101;DHT22;9177;49.156;8.142;2023-03-13T14:02:31;23.70;93.00
18101;DHT22;9177;49.156;8.142;2023-03-13T14:05:16;24.00;92.70
18101;DHT22;9177;49.156;8.142;2023-03-13T14:07:49;24.20;92.40
18101;DHT22;9177;49.156;8.142;2023-03-13T14:10:29;24.20;92.40
18101;DHT22;9177;49.156;8.142;2023-03-13T14:12:57;24.30;92.30
18101;DHT22;9177;49.156;8.142;2023-03-13T14:15:25;24.10;92.50
18101;DHT22;9177;49.156;8.142;2023-03-13T14:17:54;24.20;92.60
18101;DHT22;9177;49.156;8.142;2023-03-13T14:20:25;24.10;92.40
18101;DHT22;9177;49.156;8.142;2023-03-13T14:22:54;24.00;92.70
18101;DHT22;9177;49.156;8.142;2023-03-13T14:25:22;24.00;92.60
18101;DHT22;9177;49.156;8.142;2023-03-13T14:27:52;24.00;92.60
18101;DHT22;9177;49.156;8.142;2023-03-13T14:30:20;24.00;92.60
18101;DHT22;9177;49.156;8.142;2023-03-13T14:32:48;23.90;92.50
18101;DHT22;9177;49.156;8.142;2023-03-13T14:35:17;23.90;92.60
18101;DHT22;9177;49.156;8.142;2023-03-13T14:37:49;23.70;92.60
18101;DHT22;9177;49.156;8.142;2023-03-13T14:40:22;23.60;92.70
18101;DHT22;9177;49.156;8.142;2023-03-13T14:42:51;23.60;92.70
18101;DHT22;9177;49.156;8.142;2023-03-13T14:45:23;23.40;92.70
18101;DHT22;9177;49.156;8.142;2023-03-13T14:47:51;23.00;92.00
18101;DHT22;9177;49.156;8.142;2023-03-13T14:50:20;22.80;92.40
18101;DHT22;9177;49.156;8.142;2023-03-13T14:52:52;22.90;92.70
18101;DHT22;9177;49.156;8.142;2023-03-13T14:55:32;23.10;92.40
18101;DHT22;9177;49.156;8.142;2023-03-13T14:58:01;23.10;92.40
18101;DHT22;9177;49.156;8.142;2023-03-13T15:00:35;23.00;92.50
18101;DHT22;9177;49.156;8.142;2023-03-13T15:03:19;23.20;92.40
18101;DHT22;9177;49.156;8.142;2023-03-13T15:05:48;23.40;92.30
18101;DHT22;9177;49.156;8.142;2023-03-13T15:08:18;23.40;92.30
18101;DHT22;9177;49.156;8.142;2023-03-13T15:10:47;23.30;92.20
18101;DHT22;9177;49.156;8.142;2023-03-13T15:13:21;23.30;92.30
18101;DHT22;9177;49.156;8.142;2023-03-13T15:15:49;23.10;92.40
18101;DHT22;9177;49.156;8.142;2023-03-13T15:18:18;23.00;92.60
18101;DHT22;9177;49.156;8.142;2023-03-13T15:20:49;23.10;92.70
18101;DHT22;9177;49.156;8.142;2023-03-13T15:23:18;23.10;92.50
18101;DHT22;9177;49.156;8.142;2023-03-13T15:25:45;23.20;92.60
18101;DHT22;9177;49.156;8.142;2023-03-13T15:28:15;23.10;92.40
18101;DHT22;9177;49.156;8.142;2023-03-13T15:30:42;23.10;92.60
18101;DHT22;9177;49.156;8.142;2023-03-13T15:33:12;23.00;92.80
18101;DHT22;9177;49.156;8.142;2023-03-13T15:35:40;23.00;92.80
18101;DHT22;9177;49.156;8.142;2023-03-13T15:38:11;22.80;92.50
18101;DHT22;9177;49.156;8.142;2023-03-13T15:40:41;22.50;93.00
18101;DHT22;9177;49.156;8.142;2023-03-13T15:43:08;22.60;93.00
18101;DHT22;9177;49.156;8.142;2023-03-13T15:45:36;22.50;93.10
18101;DHT22;9177;49.156;8.142;2023-03-13T15:48:11;22.60;93.10
18101;DHT22;9177;49.156;8.142;2023-03-13T15:50:40;22.60;93.00
18101;DHT22;9177;49.156;8.142;2023-03-13T15:53:16;22.30;93.20
18101;DHT22;9177;49.156;8.142;2023-03-13T15:55:46;22.20;93.30
18101;DHT22;9177;49.156;8.142;2023-03-13T15:58:13;22.20;93.40
18101;DHT22;9177;49.156;8.142;2023-03-13T16:00:41;22.10;93.50
18101;DHT22;9177;49.156;8.142;2023-03-13T16:03:16;22.00;93.60
18101;DHT22;9177;49.156;8.142;2023-03-13T16:05:45;22.00;93.60
18101;DHT22;9177;49.156;8.142;2023-03-13T16:08:14;21.90;93.70
18101;DHT22;9177;49.156;8.142;2023-03-13T16:10:42;21.80;93.80
18101;DHT22;9177;49.156;8.142;2023-03-13T16:13:11;21.70;93.90
18101;DHT22;9177;49.156;8.142;2023-03-13T16:15:37;21.70;94.00
18101;DHT22;9177;49.156;8.142;2023-03-13T16:18:05;21.60;94.10
18101;DHT22;9177;49.156;8.142;2023-03-13T16:20:33;21.50;94.10
18101;DHT22;9177;49.156;8.142;2023-03-13T16:23:00;21.50;94.10
18101;DHT22;9177;49.156;8.142;2023-03-13T16:25:29;21.50;94.20
18101;DHT22;9177;49.156;8.142;2023-03-13T16:27:57;21.40;94.20
18101;DHT22;9177;49.156;8.142;2023-03-13T16:30:28;21.40;94.30